createdAt,value
2022-08-05T00:02:11.391Z,101615.13
2022-08-05T00:04:41.751Z,101622.09
2022-08-05T00:07:27.102Z,101619.72
2022-08-05T00:09:57.991Z,101611.69
2022-08-05T00:12:26.621Z,101608.66
2022-08-05T00:14:54.683Z,101604.31
2022-08-05T00:17:23.507Z,101603.81
2022-08-05T00:20:01.898Z,101599.63
2022-08-05T00:22:31.024Z,101598.84
2022-08-05T00:24:59.065Z,101597.66
2022-08-05T00:27:36.343Z,101589.44
2022-08-05T00:30:05.441Z,101595.28
2022-08-05T00:32:40.576Z,101603.28
2022-08-05T00:35:10.809Z,101605.78
2022-08-05T00:37:52.934Z,101582.75
2022-08-05T00:40:27.268Z,101578.63
2022-08-05T00:42:57.460Z,101575.72
2022-08-05T00:45:39.114Z,101577.69
2022-08-05T00:48:13.382Z,101590.97
2022-08-05T00:50:46.121Z,101598.75
2022-08-05T00:54:01.456Z,101598.66
2022-08-05T00:56:04.746Z,101603.53
2022-08-05T00:58:33.073Z,101598.56
2022-08-05T01:01:01.760Z,101617.22
2022-08-05T01:03:37.045Z,101622.66
2022-08-05T01:06:14.149Z,101642.72
2022-08-05T01:08:44.769Z,101649.53
2022-08-05T01:11:22.163Z,101677.44
2022-08-05T01:14:08.725Z,101687.06
2022-08-05T01:16:42.475Z,101710.94
2022-08-05T01:19:21.291Z,101710.44
2022-08-05T01:22:15.343Z,101725.00
2022-08-05T01:24:56.370Z,101721.44
2022-08-05T01:27:55.171Z,101719.16
2022-08-05T01:30:34.036Z,101734.41
2022-08-05T01:33:05.013Z,101744.28
2022-08-05T01:35:50.709Z,101738.13
2022-08-05T01:38:26.966Z,101746.81
2022-08-05T01:40:56.915Z,101745.66
2022-08-05T01:43:27.735Z,101740.06
2022-08-05T01:45:57.021Z,101727.41
2022-08-05T01:48:25.484Z,101743.00
2022-08-05T01:50:56.747Z,101740.84
2022-08-05T01:53:54.697Z,101747.06
2022-08-05T01:58:10.896Z,101749.47
2022-08-05T01:59:08.050Z,101747.44
2022-08-05T02:01:39.979Z,101745.81
2022-08-05T02:04:10.379Z,101751.16
2022-08-05T02:06:39.300Z,101743.31
2022-08-05T02:09:08.010Z,101748.47
2022-08-05T02:11:47.839Z,101758.09
2022-08-05T02:14:32.107Z,101745.88
2022-08-05T02:17:04.381Z,101738.75
2022-08-05T02:19:36.165Z,101737.81
2022-08-05T02:22:25.919Z,101724.13
2022-08-05T02:25:00.054Z,101737.41
2022-08-05T02:27:30.187Z,101724.69
2022-08-05T02:30:18.755Z,101728.41
2022-08-05T02:32:49.400Z,101748.69
2022-08-05T02:35:28.321Z,101760.41
2022-08-05T02:38:02.391Z,101772.75
2022-08-05T02:40:31.470Z,101776.38
2022-08-05T02:43:00.050Z,101784.09
2022-08-05T02:45:52.108Z,101785.59
2022-08-05T02:48:18.615Z,101763.91
2022-08-05T02:50:48.518Z,101765.75
2022-08-05T02:53:20.746Z,101776.94
2022-08-05T02:55:53.896Z,101768.31
2022-08-05T02:58:30.548Z,101765.69
2022-08-05T03:01:02.439Z,101759.84
2022-08-05T03:03:33.844Z,101740.16
2022-08-05T03:06:57.245Z,101733.56
2022-08-05T03:09:15.977Z,101730.06
2022-08-05T03:11:57.900Z,101730.41
2022-08-05T03:14:26.737Z,101740.91
2022-08-05T03:16:56.181Z,101734.81
2022-08-05T03:19:34.212Z,101742.16
2022-08-05T03:22:04.877Z,101727.13
2022-08-05T03:24:44.611Z,101724.72
2022-08-05T03:27:16.040Z,101711.59
2022-08-05T03:30:06.824Z,101709.34
2022-08-05T03:32:33.907Z,101722.72
2022-08-05T03:35:04.505Z,101724.66
2022-08-05T03:37:41.715Z,101730.00
2022-08-05T03:40:15.257Z,101738.75
2022-08-05T03:42:53.020Z,101733.63
2022-08-05T03:45:23.263Z,101716.16
2022-08-05T03:47:56.814Z,101707.16
2022-08-05T03:50:25.893Z,101686.00
2022-08-05T03:55:49.691Z,101674.50
2022-08-05T03:56:12.182Z,101676.13
2022-08-05T03:58:47.291Z,101680.84
2022-08-05T04:01:17.531Z,101676.72
2022-08-05T04:04:10.051Z,101674.06
2022-08-05T04:06:48.007Z,101668.66
2022-08-05T04:09:26.188Z,101668.66
2022-08-05T04:11:56.823Z,101665.41
2022-08-05T04:14:30.130Z,101684.84
2022-08-05T04:17:00.653Z,101712.38
2022-08-05T04:19:30.882Z,101713.69
2022-08-05T04:22:09.508Z,101705.53
2022-08-05T04:24:44.280Z,101722.56
2022-08-05T04:27:13.934Z,101714.69
2022-08-05T04:29:43.747Z,101721.09
2022-08-05T04:32:11.960Z,101726.06
2022-08-05T04:34:43.300Z,101704.00
2022-08-05T04:37:11.894Z,101692.66
2022-08-05T04:39:40.850Z,101681.25
2022-08-05T04:42:09.939Z,101653.66
2022-08-05T04:44:39.142Z,101658.00
2022-08-05T04:47:20.095Z,101703.22
2022-08-05T04:50:02.499Z,101703.38
2022-08-05T04:52:37.883Z,101713.72
2022-08-05T04:55:14.784Z,101728.09
2022-08-05T04:57:47.955Z,101728.09
2022-08-05T05:00:23.649Z,101720.84
2022-08-05T05:02:52.248Z,101729.47
2022-08-05T05:05:28.177Z,101723.97
2022-08-05T05:08:00.925Z,101721.94
2022-08-05T05:10:33.061Z,101730.47
2022-08-05T05:13:01.905Z,101709.09
2022-08-05T05:15:56.371Z,101713.84
2022-08-05T05:18:31.170Z,101706.38
2022-08-05T05:21:04.327Z,101697.66
2022-08-05T05:24:02.460Z,101696.94
2022-08-05T05:26:28.382Z,101681.78
2022-08-05T05:29:01.219Z,101672.34
2022-08-05T05:34:02.048Z,101653.84
2022-08-05T05:36:33.339Z,101696.22
2022-08-05T05:39:05.567Z,101709.59
2022-08-05T05:41:40.486Z,101695.81
2022-08-05T05:44:35.497Z,101698.78
2022-08-05T05:47:04.241Z,101702.59
2022-08-05T05:49:33.068Z,101714.53
2022-08-05T05:52:06.045Z,101713.88
2022-08-05T05:54:51.050Z,101725.19
2022-08-05T05:57:20.290Z,101755.38
2022-08-05T05:59:49.192Z,101734.41
2022-08-05T06:02:36.856Z,101740.78
2022-08-05T06:05:10.457Z,101751.53
2022-08-05T06:08:01.182Z,101768.06
2022-08-05T06:10:34.588Z,101767.38
2022-08-05T06:13:05.325Z,101749.31
2022-08-05T06:16:30.014Z,101765.03
2022-08-05T06:18:30.973Z,101787.16
2022-08-05T06:21:16.645Z,101801.75
2022-08-05T06:23:49.866Z,101801.03
2022-08-05T06:26:21.250Z,101805.56
2022-08-05T06:28:51.878Z,101796.94
2022-08-05T06:31:21.867Z,101808.78
2022-08-05T06:34:06.743Z,101813.00
2022-08-05T06:36:53.572Z,101807.09
2022-08-05T06:39:27.685Z,101803.09
2022-08-05T06:41:57.405Z,101821.34
2022-08-05T06:44:27.062Z,101819.88
2022-08-05T06:46:55.249Z,101821.84
2022-08-05T06:50:00.298Z,101818.56
2022-08-05T06:52:36.965Z,101822.22
2022-08-05T06:55:02.515Z,101805.53
2022-08-05T06:57:57.327Z,101792.25
2022-08-05T07:00:24.460Z,101797.53
2022-08-05T07:02:53.888Z,101798.75
2022-08-05T07:05:36.922Z,101833.19
2022-08-05T07:08:10.737Z,101848.91
2022-08-05T07:10:52.833Z,101860.75
2022-08-05T07:13:57.913Z,101837.31
2022-08-05T07:17:59.947Z,101827.16
2022-08-05T07:22:28.373Z,101842.75
2022-08-05T07:24:59.598Z,101863.06
2022-08-05T07:27:57.087Z,101862.00
2022-08-05T07:30:31.875Z,101837.50
2022-08-05T07:33:01.249Z,101815.34
2022-08-05T07:36:04.202Z,101829.25
2022-08-05T07:38:32.924Z,101832.47
2022-08-05T07:42:08.234Z,101828.09
2022-08-05T07:43:56.607Z,101827.69
2022-08-05T07:46:26.373Z,101823.66
2022-08-05T07:49:01.973Z,101831.97
2022-08-05T07:51:36.300Z,101828.72
2022-08-05T07:54:09.661Z,101827.69
2022-08-05T07:57:02.932Z,101827.75
2022-08-05T07:59:41.275Z,101818.81
2022-08-05T08:02:15.701Z,101817.41
2022-08-05T08:04:51.737Z,101798.25
2022-08-05T08:07:23.234Z,101791.81
2022-08-05T08:09:54.910Z,101802.13
2022-08-05T08:12:35.585Z,101801.94
2022-08-05T08:15:15.782Z,101806.22
2022-08-05T08:17:50.706Z,101804.66
2022-08-05T08:20:59.932Z,101801.44
2022-08-05T08:24:00.324Z,101812.25
2022-08-05T08:26:02.740Z,101807.25
2022-08-05T08:28:36.964Z,101811.13
2022-08-05T08:31:32.927Z,101822.16
2022-08-05T08:34:01.124Z,101811.78
2022-08-05T08:36:38.852Z,101798.84
2022-08-05T08:39:18.226Z,101764.66
2022-08-05T08:41:51.648Z,101757.69
2022-08-05T08:45:18.432Z,101746.84
2022-08-05T08:48:05.618Z,101722.84
2022-08-05T08:50:31.879Z,101686.28
2022-08-05T08:53:07.950Z,101682.03
2022-08-05T08:56:05.070Z,101660.50
2022-08-05T08:58:43.207Z,101629.81
2022-08-05T09:01:15.894Z,101561.59
2022-08-05T09:03:54.540Z,101530.88
2022-08-05T09:06:28.538Z,101544.19
2022-08-05T09:09:00.352Z,101577.53
2022-08-05T09:11:51.759Z,101601.03
2022-08-05T09:14:57.859Z,101608.47
2022-08-05T09:17:09.458Z,101619.53
2022-08-05T09:20:01.682Z,101622.22
2022-08-05T09:23:18.502Z,101650.34
2022-08-05T09:26:01.797Z,101667.81
2022-08-05T09:28:33.198Z,101658.25
2022-08-05T09:32:38.986Z,101670.81
2022-08-05T09:33:55.200Z,101683.53
2022-08-05T09:36:33.255Z,101693.06
2022-08-05T09:39:03.368Z,101688.50
2022-08-05T09:41:59.261Z,101689.56
2022-08-05T09:44:40.741Z,101720.59
2022-08-05T09:47:12.531Z,101749.41
2022-08-05T09:50:02.353Z,101760.00
2022-08-05T09:52:34.381Z,101765.06
2022-08-05T09:55:55.418Z,101761.50
2022-08-05T09:57:54.836Z,101773.56
2022-08-05T10:00:26.854Z,101784.25
2022-08-05T10:02:58.628Z,101797.41
2022-08-05T10:05:28.652Z,101808.16
2022-08-05T10:08:36.963Z,101813.91
2022-08-05T10:10:54.584Z,101816.31
2022-08-05T10:13:45.853Z,101830.97
2022-08-05T10:16:37.780Z,101829.63
2022-08-05T11:08:02.848Z,101823.75
2022-08-05T11:10:27.628Z,101822.09
2022-08-05T11:13:06.750Z,101823.72
2022-08-05T11:16:00.347Z,101813.81
2022-08-05T11:18:32.290Z,101797.53
2022-08-05T11:21:02.901Z,101787.84
2022-08-05T11:24:03.813Z,101756.00
2022-08-05T11:26:33.732Z,101742.91
2022-08-05T11:29:11.798Z,101729.16
2022-08-05T11:31:57.044Z,101734.44
2022-08-05T11:34:51.393Z,101727.44
2022-08-05T11:38:30.407Z,101718.03
2022-08-05T11:41:14.211Z,101714.91
2022-08-05T11:44:06.776Z,101717.94
2022-08-05T11:46:57.958Z,101729.06
2022-08-05T11:49:26.690Z,101694.00
2022-08-05T11:51:57.415Z,101683.44
2022-08-05T11:54:33.382Z,101681.00
2022-08-05T11:57:25.321Z,101698.91
2022-08-05T11:59:56.024Z,101706.81
2022-08-05T12:02:32.012Z,101716.88
2022-08-05T12:05:06.829Z,101711.41
2022-08-05T12:08:08.385Z,101687.47
2022-08-05T12:10:43.533Z,101698.50
2022-08-05T12:13:18.796Z,101697.13
2022-08-05T12:16:15.373Z,101682.09
2022-08-05T12:18:52.766Z,101660.09
2022-08-05T12:21:24.207Z,101664.72
2022-08-05T12:23:59.955Z,101635.09
2022-08-05T12:26:32.411Z,101611.66
2022-08-05T12:29:03.250Z,101600.91
2022-08-05T12:31:43.671Z,101618.16
2022-08-05T12:34:21.315Z,101649.81
2022-08-05T12:36:53.383Z,101661.06
2022-08-05T12:39:23.488Z,101646.28
2022-08-05T12:41:59.639Z,101655.75
2022-08-05T12:44:34.181Z,101676.34
2022-08-05T12:47:02.944Z,101669.50
2022-08-05T12:50:04.748Z,101689.94
2022-08-05T12:52:38.861Z,101683.69
2022-08-05T12:55:22.036Z,101697.09
2022-08-05T12:58:48.495Z,101714.50
2022-08-05T13:02:02.216Z,101714.09
2022-08-05T13:03:41.764Z,101711.28
2022-08-05T13:06:19.642Z,101730.22
2022-08-05T13:08:51.999Z,101744.75
2022-08-05T13:11:25.545Z,101749.22
2022-08-05T13:14:36.289Z,101768.44
2022-08-05T13:17:11.320Z,101792.38
2022-08-05T13:19:47.281Z,101782.09
2022-08-05T13:22:28.105Z,101785.06
2022-08-05T13:25:00.960Z,101779.22
2022-08-05T13:27:38.069Z,101750.47
2022-08-05T13:30:34.683Z,101715.69
2022-08-05T13:33:01.540Z,101713.22
2022-08-05T13:35:42.645Z,101689.25
2022-08-05T13:38:20.013Z,101683.22
2022-08-05T13:41:00.295Z,101684.94
2022-08-05T13:43:44.220Z,101707.06
2022-08-05T13:46:16.319Z,101698.63
2022-08-05T13:48:58.018Z,101695.72
2022-08-05T13:51:40.078Z,101698.56
2022-08-05T13:54:11.795Z,101690.88
2022-08-05T13:56:45.558Z,101691.31
2022-08-05T13:59:24.483Z,101673.41
2022-08-05T14:01:57.588Z,101676.00
2022-08-05T14:04:50.009Z,101669.69
2022-08-05T14:07:55.563Z,101681.44
2022-08-05T14:10:12.867Z,101696.69
2022-08-05T14:12:42.640Z,101696.94
2022-08-05T14:16:05.835Z,101696.94
2022-08-05T14:18:04.018Z,101694.59
2022-08-05T14:20:34.382Z,101693.88
2022-08-05T14:23:02.672Z,101718.16
2022-08-05T14:25:30.936Z,101730.13
2022-08-05T14:27:59.094Z,101759.50
2022-08-05T14:30:27.975Z,101770.00
2022-08-05T14:32:56.881Z,101774.72
2022-08-05T14:35:36.973Z,101768.88
2022-08-05T14:38:06.864Z,101805.59
2022-08-05T14:40:55.190Z,101817.47
2022-08-05T14:43:58.833Z,101825.97
2022-08-05T14:46:12.077Z,101848.94
2022-08-05T14:48:40.255Z,101840.16
2022-08-05T14:51:08.496Z,101845.81
2022-08-05T14:53:44.561Z,101848.66
2022-08-05T14:56:13.344Z,101862.63
2022-08-05T14:58:47.839Z,101853.19
2022-08-05T15:01:47.177Z,101866.06
2022-08-05T15:04:11.816Z,101888.94
2022-08-05T15:06:40.403Z,101908.09
2022-08-05T15:09:10.634Z,101916.72
2022-08-05T15:11:50.843Z,101918.19
2022-08-05T15:14:34.561Z,101920.25
2022-08-05T15:17:45.553Z,101909.59
2022-08-05T15:19:58.172Z,101904.78
2022-08-05T15:22:27.039Z,101921.78
2022-08-05T15:24:59.023Z,101932.63
2022-08-05T15:27:35.850Z,101940.41
2022-08-05T15:30:04.631Z,101963.41
2022-08-05T15:32:32.769Z,101965.41
2022-08-05T15:35:09.734Z,101959.16
2022-08-05T15:38:33.087Z,101955.06
2022-08-05T15:41:01.107Z,101930.69
2022-08-05T15:43:20.025Z,101901.94
2022-08-05T15:46:00.160Z,101901.16
2022-08-05T15:48:29.861Z,101881.28
2022-08-05T15:50:58.215Z,101882.81
2022-08-05T15:53:38.552Z,101857.31
2022-08-05T15:56:21.029Z,101819.41
2022-08-05T15:58:49.879Z,101810.31
2022-08-05T16:01:19.066Z,101789.22
2022-08-05T16:03:50.521Z,101747.63
2022-08-05T16:06:20.938Z,101727.41
2022-08-05T16:08:53.754Z,101711.28
2022-08-05T16:11:39.889Z,101712.75
2022-08-05T16:14:09.160Z,101702.88
2022-08-05T16:16:37.231Z,101678.03
2022-08-05T16:19:05.656Z,101678.13
2022-08-05T16:21:58.545Z,101688.94
2022-08-05T16:24:40.066Z,101673.56
2022-08-05T16:27:15.887Z,101640.34
2022-08-05T16:29:50.028Z,101624.63
2022-08-05T16:32:28.322Z,101611.19
2022-08-05T16:34:57.668Z,101602.63
2022-08-05T16:38:02.565Z,101600.72
2022-08-05T16:40:26.528Z,101593.88
2022-08-05T16:42:58.909Z,101590.84
2022-08-05T16:46:04.636Z,101593.03
2022-08-05T16:48:25.306Z,101603.84
2022-08-05T16:50:54.439Z,101603.81
2022-08-05T16:53:32.109Z,101599.72
2022-08-05T16:56:11.626Z,101594.50
2022-08-05T16:58:41.879Z,101598.22
2022-08-05T17:01:10.420Z,101599.63
2022-08-05T17:03:38.939Z,101600.19
2022-08-05T17:06:08.009Z,101586.06
2022-08-05T17:08:52.840Z,101572.78
2022-08-05T17:11:23.387Z,101566.38
2022-08-05T17:14:05.565Z,101556.13
2022-08-05T17:16:36.089Z,101553.56
2022-08-05T17:19:07.503Z,101551.56
2022-08-05T17:21:37.815Z,101553.78
2022-08-05T17:24:30.262Z,101556.94
2022-08-05T17:26:57.579Z,101541.13
2022-08-05T17:29:34.064Z,101542.47
2022-08-05T17:32:11.948Z,101537.09
2022-08-05T17:34:47.509Z,101544.59
2022-08-05T17:37:36.134Z,101538.66
2022-08-05T17:40:10.309Z,101531.00
2022-08-05T17:42:41.580Z,101536.84
2022-08-05T17:45:22.089Z,101539.78
2022-08-05T17:47:54.479Z,101525.88
2022-08-05T17:50:28.341Z,101536.00
2022-08-05T17:52:59.412Z,101540.44
2022-08-05T17:55:37.588Z,101538.59
2022-08-05T17:58:09.321Z,101546.31
2022-08-05T18:00:40.815Z,101553.63
2022-08-05T18:03:28.211Z,101552.72
2022-08-05T18:06:04.570Z,101577.09
2022-08-05T18:08:33.800Z,101592.88
2022-08-05T18:11:03.269Z,101606.66
2022-08-05T18:13:36.887Z,101614.88
2022-08-05T18:16:14.269Z,101638.16
2022-08-05T18:18:48.627Z,101650.69
2022-08-05T18:21:20.026Z,101660.09
2022-08-05T18:23:53.970Z,101669.53
2022-08-05T18:26:29.169Z,101696.38
2022-08-05T18:29:00.519Z,101720.94
2022-08-05T18:31:33.035Z,101745.03
2022-08-05T18:34:05.027Z,101753.69
2022-08-05T18:36:35.985Z,101766.66
2022-08-05T18:39:09.582Z,101783.63
2022-08-05T18:41:55.808Z,101802.16
2022-08-05T18:44:34.907Z,101806.50
2022-08-05T18:47:05.771Z,101805.44
2022-08-05T18:49:58.070Z,101806.78
2022-08-05T18:52:35.966Z,101828.94
2022-08-05T18:55:06.685Z,101828.06
2022-08-05T18:57:50.037Z,101831.91
2022-08-05T19:00:28.569Z,101845.03
2022-08-05T19:03:03.226Z,101855.34
2022-08-05T19:06:11.605Z,101856.34
2022-08-05T19:08:21.802Z,101854.53
2022-08-05T19:10:50.449Z,101867.13
2022-08-05T19:13:19.787Z,101874.50
2022-08-05T19:15:58.783Z,101887.09
2022-08-05T19:18:29.779Z,101910.19
2022-08-05T19:20:59.403Z,101933.22
2022-08-05T19:24:07.245Z,101952.31
2022-08-05T19:26:17.425Z,101967.53
2022-08-05T19:28:46.131Z,101987.81
2022-08-05T19:31:18.030Z,102002.78
2022-08-05T19:33:56.238Z,102018.84
2022-08-05T19:36:25.849Z,102033.75
2022-08-05T19:38:54.921Z,102040.88
2022-08-05T19:41:58.475Z,102059.53
2022-08-05T19:44:15.482Z,102074.22
2022-08-05T19:46:43.987Z,102078.59
2022-08-05T19:49:16.884Z,102067.28
2022-08-05T19:52:08.645Z,102073.56
2022-08-05T19:54:34.853Z,102077.88
2022-08-05T19:57:06.873Z,102078.03
2022-08-05T19:59:56.195Z,102084.66
2022-08-05T20:02:27.046Z,102077.34
2022-08-05T20:04:59.019Z,102055.34
2022-08-05T20:07:45.746Z,102058.59
2022-08-05T20:10:15.668Z,102066.22
2022-08-05T20:12:47.709Z,102044.97
2022-08-05T20:15:48.011Z,102022.50
2022-08-05T20:18:10.397Z,102001.28
2022-08-05T20:20:55.945Z,101984.66
2022-08-05T20:23:39.620Z,101984.72
2022-08-05T20:26:15.953Z,101982.94
2022-08-05T20:28:45.872Z,101965.09
2022-08-05T20:31:16.586Z,101962.91
2022-08-05T20:33:45.642Z,101948.38
2022-08-05T20:36:17.839Z,101916.88
2022-08-05T20:38:53.758Z,101906.44
2022-08-05T20:41:27.560Z,101886.41
2022-08-05T20:44:17.782Z,101876.59
2022-08-05T20:46:48.080Z,101854.34
2022-08-05T20:49:24.016Z,101857.38
2022-08-05T20:51:57.351Z,101863.34
2022-08-05T20:54:55.563Z,101862.47
2022-08-05T20:57:42.640Z,101869.19
2022-08-05T21:00:20.568Z,101877.97
2022-08-05T21:02:55.480Z,101881.66
2022-08-05T21:05:25.790Z,101901.09
2022-08-05T21:08:07.988Z,101910.06
2022-08-05T21:10:36.553Z,101898.50
2022-08-05T21:13:11.192Z,101907.44
2022-08-05T21:15:50.921Z,101915.34
2022-08-05T21:18:19.443Z,101914.59
2022-08-05T21:20:51.355Z,101903.19
2022-08-05T21:23:21.047Z,101906.63
2022-08-05T21:25:50.525Z,101899.59
2022-08-05T21:28:18.982Z,101894.16
2022-08-05T21:30:52.128Z,101895.31
2022-08-05T21:33:22.066Z,101883.75
2022-08-05T21:35:59.003Z,101878.22
2022-08-05T21:38:28.975Z,101879.41
2022-08-05T21:40:57.031Z,101883.88
2022-08-05T21:43:25.862Z,101890.31
2022-08-05T21:45:57.525Z,101877.25
2022-08-05T21:48:28.288Z,101870.19
2022-08-05T21:50:57.194Z,101867.78
2022-08-05T21:53:27.227Z,101868.53
2022-08-05T21:56:09.582Z,101872.34
2022-08-05T21:58:48.281Z,101868.88
2022-08-05T22:01:25.748Z,101872.28
2022-08-05T22:03:54.119Z,101862.84
2022-08-05T22:06:34.715Z,101861.91
2022-08-05T22:09:13.939Z,101860.16
2022-08-05T22:11:46.856Z,101888.13
2022-08-05T22:14:33.412Z,101903.03
2022-08-05T22:17:03.749Z,101899.84
2022-08-05T22:20:03.179Z,101917.50
2022-08-05T22:22:27.351Z,101877.06
2022-08-05T22:26:09.273Z,101852.34
2022-08-05T22:28:19.610Z,101849.78
2022-08-05T22:30:56.027Z,101843.00
2022-08-05T22:33:57.945Z,101845.94
2022-08-05T22:36:15.182Z,101844.97
2022-08-05T22:38:48.594Z,101842.63
2022-08-05T22:42:05.671Z,101843.41
2022-08-05T22:44:08.881Z,101840.03
2022-08-05T22:46:40.123Z,101841.16
2022-08-05T22:49:12.125Z,101842.81
2022-08-05T22:52:05.659Z,101838.53
2022-08-05T22:54:36.081Z,101830.84
2022-08-05T22:57:04.581Z,101846.78
2022-08-05T22:59:44.157Z,101853.53
2022-08-05T23:02:18.211Z,101847.56
2022-08-05T23:04:51.880Z,101859.03
2022-08-05T23:07:22.004Z,101859.69
2022-08-05T23:09:57.554Z,101856.22
2022-08-05T23:12:32.421Z,101866.72
2022-08-05T23:15:03.962Z,101880.94
2022-08-05T23:18:01.637Z,101881.72
2022-08-05T23:20:25.774Z,101886.19
2022-08-05T23:22:55.888Z,101895.59
2022-08-05T23:25:55.285Z,101897.38
2022-08-05T23:28:15.934Z,101909.50
2022-08-05T23:30:53.298Z,101913.69
2022-08-05T23:33:26.322Z,101918.34
2022-08-05T23:36:10.662Z,101928.28
2022-08-05T23:38:38.936Z,101933.13
2022-08-05T23:41:07.267Z,101958.19
2022-08-05T23:44:02.760Z,101976.66
2022-08-05T23:46:26.489Z,101991.66
2022-08-05T23:48:59.608Z,101996.41
2022-08-05T23:51:54.328Z,102005.19
2022-08-05T23:54:25.893Z,102011.94
2022-08-05T23:57:03.183Z,102012.03
